Time;durP1;ratioP1;P1;durP2;ratioP2;P2;SDS_P1;SDS_P2;PMS_P1;PMS_P2;Temp;Humidity;BMP_temperature;BMP_pressure;BME280_temperature;BME280_humidity;BME280_pressure;Samples;Min_cycle;Max_cycle;Signal;HPM_P1;HPM_P2
2023/05/24 00:01:06;;;;;;;6.53;2.75;;;12.10;69.90;;;;;;5014153;28;20099;-76
2023/05/24 00:03:33;;;;;;;4.20;2.17;;;12.10;70.00;;;;;;5014448;28;20030;-76
2023/05/24 00:05:59;;;;;;;3.40;2.08;;;12.10;70.00;;;;;;4968632;28;20034;-76
2023/05/24 00:08:25;;;;;;;4.20;2.30;;;12.10;70.10;;;;;;4966619;28;20045;-76
2023/05/24 00:10:50;;;;;;;5.43;2.20;;;12.10;70.20;;;;;;4978412;28;20057;-76
2023/05/24 00:13:16;;;;;;;6.47;2.38;;;12.00;70.10;;;;;;4997460;28;20060;-76
2023/05/24 00:15:41;;;;;;;5.20;2.17;;;12.00;70.10;;;;;;4981819;28;20068;-76
2023/05/24 00:18:07;;;;;;;4.68;2.55;;;12.00;70.20;;;;;;4998140;28;20079;-77
2023/05/24 00:20:32;;;;;;;5.88;2.00;;;11.90;70.20;;;;;;5016548;28;20030;-76
2023/05/24 00:22:58;;;;;;;4.05;2.33;;;11.90;70.30;;;;;;4982369;28;20033;-75
2023/05/24 00:25:23;;;;;;;4.88;2.28;;;11.90;70.40;;;;;;4998700;28;20041;-76
2023/05/24 00:27:49;;;;;;;3.75;1.90;;;11.90;70.50;;;;;;5016223;28;20044;-76
2023/05/24 00:30:14;;;;;;;5.68;2.03;;;11.90;70.50;;;;;;4979638;28;20439;-77
2023/05/24 00:32:40;;;;;;;5.70;2.30;;;11.90;70.60;;;;;;4966269;28;20583;-76
2023/05/24 00:35:06;;;;;;;4.00;2.25;;;11.90;70.70;;;;;;4999343;28;20068;-76
2023/05/24 00:37:31;;;;;;;4.75;2.42;;;11.80;70.70;;;;;;5015687;28;20060;-75
2023/05/24 00:39:57;;;;;;;4.38;2.00;;;11.80;70.70;;;;;;4998899;28;20107;-77
2023/05/24 00:42:22;;;;;;;4.15;2.42;;;11.80;70.80;;;;;;4996785;28;20033;-76
2023/05/24 00:44:48;;;;;;;4.18;2.85;;;11.80;70.90;;;;;;5000427;28;20053;-75
2023/05/24 00:47:14;;;;;;;8.88;2.70;;;11.80;70.90;;;;;;4986600;28;20034;-75
2023/05/24 00:49:40;;;;;;;4.75;2.05;;;11.80;70.90;;;;;;4997934;28;20038;-76
2023/05/24 00:52:05;;;;;;;3.67;2.00;;;11.70;71.10;;;;;;4999097;28;20022;-76
2023/05/24 00:54:31;;;;;;;5.53;2.30;;;11.70;71.10;;;;;;4998545;28;20065;-77
2023/05/24 00:56:56;;;;;;;7.30;2.20;;;11.70;71.10;;;;;;5014118;28;20409;-77
2023/05/24 00:59:22;;;;;;;4.10;2.17;;;11.70;71.20;;;;;;4969150;28;20619;-76
2023/05/24 01:01:48;;;;;;;5.47;1.95;;;11.70;71.20;;;;;;4960645;28;20919;-76
2023/05/24 01:04:13;;;;;;;8.10;2.67;;;11.70;71.30;;;;;;4994799;28;20577;-76
2023/05/24 01:06:50;;;;;;;4.90;2.45;;;11.70;71.40;;;;;;4983804;28;20052;-76
2023/05/24 01:09:22;;;;;;;6.18;2.20;;;11.70;71.60;;;;;;4963304;28;20635;-77
2023/05/24 01:12:11;;;;;;;3.28;2.03;;;11.70;71.50;;;;;;4945794;28;20092;-76
2023/05/24 01:14:47;;;;;;;4.43;2.13;;;11.70;71.60;;;;;;4948325;28;20045;-76
2023/05/24 01:17:23;;;;;;;5.97;2.58;;;11.70;71.60;;;;;;4980403;28;20100;-77
2023/05/24 01:19:53;;;;;;;7.38;2.20;;;11.60;71.60;;;;;;4958083;28;20771;-77
2023/05/24 01:22:56;;;;;;;6.85;1.98;;;11.60;71.60;;;;;;4978047;28;20073;-76
2023/05/24 01:25:28;;;;;;;6.10;2.47;;;11.60;71.90;;;;;;4998425;28;20037;-76
2023/05/24 01:27:53;;;;;;;5.63;2.35;;;11.50;71.60;;;;;;4983215;28;20037;-76
2023/05/24 01:30:19;;;;;;;5.90;2.20;;;11.50;71.60;;;;;;4929099;28;20745;-76
2023/05/24 01:32:45;;;;;;;4.32;2.28;;;11.50;71.80;;;;;;4982245;28;20054;-76
2023/05/24 01:35:11;;;;;;;7.00;2.38;;;11.40;71.70;;;;;;4982014;28;20481;-76
2023/05/24 01:37:37;;;;;;;3.75;2.40;;;11.40;71.90;;;;;;4980111;28;20509;-76
2023/05/24 01:40:03;;;;;;;6.60;2.58;;;11.40;71.90;;;;;;4996084;28;20029;-76
2023/05/24 01:42:40;;;;;;;5.00;2.10;;;11.40;72.00;;;;;;4951896;28;20036;-76
2023/05/24 01:45:21;;;;;;;6.47;2.22;;;11.40;72.20;;;;;;4961910;28;20396;-77
2023/05/24 01:47:55;;;;;;;7.57;2.65;;;11.40;72.20;;;;;;4993155;28;20084;-77
2023/05/24 01:50:25;;;;;;;6.55;2.10;;;11.30;72.30;;;;;;4959707;28;20808;-75
2023/05/24 01:52:51;;;;;;;6.68;2.15;;;11.30;72.10;;;;;;4960876;28;20121;-75
2023/05/24 01:55:16;;;;;;;10.65;2.80;;;11.30;72.20;;;;;;4966724;28;20087;-76
2023/05/24 01:57:43;;;;;;;7.18;2.45;;;11.30;72.20;;;;;;4965683;28;20048;-76
2023/05/24 02:00:09;;;;;;;7.00;2.38;;;11.30;72.30;;;;;;4968053;28;20045;-76
2023/05/24 02:02:35;;;;;;;7.22;2.28;;;11.30;72.30;;;;;;5005571;28;20041;-76
2023/05/24 02:05:00;;;;;;;8.05;2.92;;;11.20;72.40;;;;;;5002413;28;20041;-76
2023/05/24 02:07:26;;;;;;;4.20;2.35;;;11.20;72.40;;;;;;5011304;28;20128;-75
2023/05/24 02:09:52;;;;;;;5.63;2.40;;;11.20;72.40;;;;;;5013156;28;20283;-76
2023/05/24 02:12:17;;;;;;;6.00;2.60;;;11.20;72.50;;;;;;5014761;28;20423;-75
2023/05/24 02:14:43;;;;;;;6.47;2.45;;;11.20;72.50;;;;;;5013377;28;20117;-76
2023/05/24 02:17:08;;;;;;;5.90;3.05;;;11.10;72.50;;;;;;4998587;28;20041;-76
2023/05/24 02:19:35;;;;;;;8.82;2.55;;;11.10;72.50;;;;;;4997874;28;20033;-77
2023/05/24 02:22:01;;;;;;;6.70;2.45;;;11.10;72.60;;;;;;5015069;28;20037;-77
2023/05/24 02:24:27;;;;;;;6.90;2.65;;;11.10;72.70;;;;;;4998013;28;20456;-76
2023/05/24 02:26:54;;;;;;;4.15;2.45;;;11.10;72.70;;;;;;5012219;28;20055;-76
2023/05/24 02:29:21;;;;;;;6.35;2.03;;;11.10;72.80;;;;;;5009691;28;20095;-76
2023/05/24 02:31:49;;;;;;;5.15;2.50;;;11.00;72.80;;;;;;5008436;28;20034;-76
2023/05/24 02:34:14;;;;;;;4.65;2.30;;;11.10;72.90;;;;;;4992605;28;20026;-75
2023/05/24 02:36:41;;;;;;;4.18;2.63;;;11.10;72.90;;;;;;4990623;28;20687;-77
2023/05/24 02:39:07;;;;;;;6.10;2.88;;;11.10;73.00;;;;;;5008313;28;20271;-76
2023/05/24 02:41:32;;;;;;;9.77;3.15;;;11.00;72.90;;;;;;4995944;28;20565;-76
2023/05/24 02:43:58;;;;;;;10.88;3.13;;;11.00;72.90;;;;;;5014295;28;20041;-76
2023/05/24 02:46:23;;;;;;;5.53;2.53;;;11.00;72.90;;;;;;5012309;28;20030;-77
2023/05/24 02:48:49;;;;;;;6.22;2.75;;;11.00;72.90;;;;;;4979055;28;20038;-76
2023/05/24 02:51:14;;;;;;;7.85;2.65;;;11.00;72.90;;;;;;4996551;28;20044;-77
2023/05/24 02:53:42;;;;;;;9.00;2.60;;;11.00;73.40;;;;;;4991203;28;20046;-76
2023/05/24 02:56:07;;;;;;;8.50;3.08;;;11.00;72.90;;;;;;5014789;28;20057;-76
2023/05/24 02:58:33;;;;;;;6.75;2.70;;;11.00;72.90;;;;;;5013336;28;21966;-76
2023/05/24 03:01:00;;;;;;;6.20;2.35;;;11.00;72.90;;;;;;4993709;28;20114;-77
2023/05/24 03:03:25;;;;;;;7.38;2.60;;;11.00;72.90;;;;;;5009595;28;20034;-77
2023/05/24 03:05:51;;;;;;;7.38;2.80;;;11.00;72.90;;;;;;4995381;28;20044;-76
2023/05/24 03:08:17;;;;;;;8.13;2.42;;;11.00;73.60;;;;;;4970525;28;20042;-75
2023/05/24 03:10:42;;;;;;;9.10;3.00;;;11.00;72.70;;;;;;5016105;28;20056;-76
2023/05/24 03:13:08;;;;;;;10.75;2.30;;;11.00;72.60;;;;;;4978483;28;21900;-76
2023/05/24 03:15:33;;;;;;;10.25;2.40;;;10.90;72.50;;;;;;5001451;28;20033;-76
2023/05/24 03:17:59;;;;;;;8.00;2.80;;;10.90;72.50;;;;;;4996524;28;20037;-76
2023/05/24 03:20:25;;;;;;;7.20;2.20;;;10.90;72.50;;;;;;4996052;28;20033;-76
2023/05/24 03:22:51;;;;;;;10.50;2.30;;;10.90;72.50;;;;;;4992027;28;20794;-76
2023/05/24 03:25:17;;;;;;;7.68;2.40;;;10.90;72.40;;;;;;4980379;28;20034;-76
2023/05/24 03:27:43;;;;;;;6.32;2.00;;;10.90;72.40;;;;;;4994180;28;20030;-77
2023/05/24 03:30:08;;;;;;;5.32;2.15;;;10.80;72.50;;;;;;5013617;28;20073;-76
2023/05/24 03:32:34;;;;;;;9.13;2.42;;;10.80;72.50;;;;;;4996297;28;20121;-76
2023/05/24 03:35:00;;;;;;;8.55;2.50;;;10.80;72.50;;;;;;5011087;28;20033;-76
2023/05/24 03:37:26;;;;;;;8.18;2.60;;;10.80;72.50;;;;;;5016421;28;20479;-76
2023/05/24 03:39:51;;;;;;;6.80;2.22;;;10.80;72.50;;;;;;5015708;28;20769;-76
2023/05/24 03:42:17;;;;;;;8.18;2.10;;;10.80;72.50;;;;;;5011838;28;20037;-75
2023/05/24 03:44:42;;;;;;;8.85;2.40;;;10.80;72.40;;;;;;4989492;28;20033;-76
2023/05/24 03:47:08;;;;;;;8.20;2.10;;;10.80;72.40;;;;;;5000193;28;21230;-75
2023/05/24 03:49:33;;;;;;;5.10;1.80;;;10.80;72.40;;;;;;4999498;28;20040;-75
2023/05/24 03:51:59;;;;;;;7.93;2.45;;;10.80;72.40;;;;;;4996773;28;20056;-76
2023/05/24 03:54:25;;;;;;;5.18;1.67;;;10.80;72.50;;;;;;4968450;28;20060;-76
2023/05/24 03:56:52;;;;;;;8.45;2.25;;;10.80;72.60;;;;;;4992303;28;20116;-76
2023/05/24 03:59:17;;;;;;;6.82;2.10;;;10.80;72.60;;;;;;4991840;28;20096;-76
2023/05/24 04:01:43;;;;;;;9.13;2.00;;;10.80;72.60;;;;;;4967915;28;20188;-75
2023/05/24 04:04:09;;;;;;;5.82;1.90;;;10.80;72.60;;;;;;4981322;28;20077;-76
2023/05/24 04:06:35;;;;;;;12.40;3.85;;;10.80;72.60;;;;;;4963141;28;20042;-76
2023/05/24 04:09:01;;;;;;;8.63;2.33;;;10.80;72.60;;;;;;4963945;28;20688;-76
2023/05/24 04:11:27;;;;;;;9.32;2.17;;;10.80;72.50;;;;;;4982594;28;20030;-75
2023/05/24 04:13:56;;;;;;;7.22;2.33;;;10.80;72.40;;;;;;4983525;28;20053;-75
2023/05/24 04:16:26;;;;;;;10.48;2.50;;;10.80;72.40;;;;;;4950376;28;20034;-75
2023/05/24 04:18:55;;;;;;;5.40;1.90;;;10.80;72.30;;;;;;4980515;28;20072;-75
2023/05/24 04:21:21;;;;;;;4.70;1.80;;;10.80;72.30;;;;;;4999004;28;20030;-75
2023/05/24 04:23:47;;;;;;;7.65;2.25;;;10.80;72.40;;;;;;4961683;28;20469;-76
2023/05/24 04:26:13;;;;;;;5.88;2.33;;;10.90;72.40;;;;;;4964238;28;20390;-75
2023/05/24 04:28:38;;;;;;;10.63;2.25;;;10.90;72.40;;;;;;4963220;28;20038;-76
2023/05/24 04:31:05;;;;;;;5.03;1.98;;;10.90;72.40;;;;;;4981984;28;20038;-76
2023/05/24 04:33:33;;;;;;;5.22;1.90;;;10.90;72.30;;;;;;4965929;28;20140;-75
2023/05/24 04:36:00;;;;;;;5.65;2.30;;;10.90;72.20;;;;;;4976360;28;20038;-75
2023/05/24 04:38:28;;;;;;;8.45;2.47;;;10.90;72.20;;;;;;4955153;28;20622;-76
2023/05/24 04:40:55;;;;;;;5.78;2.03;;;10.90;72.10;;;;;;4964194;28;20033;-76
2023/05/24 04:43:21;;;;;;;9.52;2.50;;;10.90;72.10;;;;;;4954742;28;20046;-78
2023/05/24 04:45:47;;;;;;;6.93;2.40;;;10.90;72.10;;;;;;4959996;28;20038;-76
2023/05/24 04:48:12;;;;;;;5.38;2.15;;;10.90;72.00;;;;;;4987520;28;20134;-76
2023/05/24 04:50:38;;;;;;;5.38;2.00;;;11.00;72.00;;;;;;5001871;28;20509;-76
2023/05/24 04:53:04;;;;;;;6.93;2.42;;;10.90;71.70;;;;;;4974360;28;20521;-75
2023/05/24 04:55:30;;;;;;;7.32;2.38;;;11.00;71.80;;;;;;4967570;28;20039;-76
2023/05/24 04:57:55;;;;;;;7.28;1.85;;;11.00;71.80;;;;;;4967472;28;20088;-76
2023/05/24 05:00:21;;;;;;;9.73;2.35;;;11.00;71.80;;;;;;4954922;28;20120;-76
2023/05/24 05:02:47;;;;;;;14.73;2.60;;;11.00;71.80;;;;;;4994907;28;20038;-76
2023/05/24 05:05:13;;;;;;;9.50;1.92;;;11.10;71.70;;;;;;4995888;28;20034;-75
2023/05/24 05:07:39;;;;;;;8.70;2.63;;;11.10;71.70;;;;;;4996301;28;20038;-76
2023/05/24 05:10:05;;;;;;;10.40;2.13;;;11.10;71.50;;;;;;4996199;28;20069;-75
2023/05/24 05:12:31;;;;;;;8.45;2.40;;;11.10;71.40;;;;;;4996679;28;20411;-75
2023/05/24 05:14:57;;;;;;;10.57;2.55;;;11.20;71.20;;;;;;4995508;28;20038;-75
2023/05/24 05:17:22;;;;;;;10.93;2.80;;;11.20;71.20;;;;;;5001831;28;20034;-75
2023/05/24 05:19:48;;;;;;;10.95;2.58;;;11.20;71.10;;;;;;4996268;28;20470;-76
2023/05/24 05:22:13;;;;;;;10.73;2.10;;;11.20;71.00;;;;;;4995440;28;20049;-76
2023/05/24 05:24:39;;;;;;;6.97;2.33;;;11.20;70.90;;;;;;4995851;28;20042;-76
2023/05/24 05:27:05;;;;;;;9.35;2.42;;;11.20;70.80;;;;;;4995564;28;20046;-75
2023/05/24 05:29:31;;;;;;;9.98;2.28;;;11.20;70.80;;;;;;4994997;28;20030;-75
2023/05/24 05:31:56;;;;;;;7.97;2.40;;;11.20;70.80;;;;;;4990663;28;20030;-76
2023/05/24 05:34:22;;;;;;;6.35;2.60;;;11.20;70.80;;;;;;4994104;28;20045;-76
2023/05/24 05:36:47;;;;;;;7.47;1.95;;;11.20;70.60;;;;;;4991709;28;20053;-75
2023/05/24 05:39:13;;;;;;;11.85;2.70;;;11.30;70.60;;;;;;4991574;28;20045;-77
2023/05/24 05:41:39;;;;;;;8.77;2.20;;;11.30;70.50;;;;;;4989879;28;20156;-76
2023/05/24 05:44:05;;;;;;;11.07;2.20;;;11.30;70.50;;;;;;4993063;28;20776;-76
2023/05/24 05:46:30;;;;;;;11.77;2.53;;;11.40;70.30;;;;;;4961368;28;20409;-76
2023/05/24 05:48:56;;;;;;;11.95;2.72;;;11.40;70.20;;;;;;4993447;28;20681;-76
2023/05/24 05:51:22;;;;;;;4.75;2.25;;;11.40;70.10;;;;;;4980538;28;20137;-76
2023/05/24 05:53:47;;;;;;;10.88;2.88;;;11.50;70.00;;;;;;4994917;28;20432;-76
2023/05/24 05:56:13;;;;;;;9.88;3.05;;;11.50;70.00;;;;;;4995368;28;20671;-76
2023/05/24 05:58:38;;;;;;;11.35;2.33;;;11.60;69.80;;;;;;4996713;28;20607;-76
2023/05/24 06:01:04;;;;;;;9.45;2.40;;;11.60;69.70;;;;;;4991142;28;20433;-74
2023/05/24 06:03:29;;;;;;;6.10;2.70;;;11.70;69.70;;;;;;4995450;28;20065;-76
2023/05/24 06:05:55;;;;;;;11.38;2.83;;;11.70;69.50;;;;;;4995280;28;20405;-76
2023/05/24 06:08:21;;;;;;;7.88;2.22;;;11.80;69.40;;;;;;4994884;28;20076;-77
2023/05/24 06:10:46;;;;;;;7.88;2.45;;;11.90;69.30;;;;;;4994087;28;20038;-76
2023/05/24 06:13:12;;;;;;;8.07;2.05;;;11.90;69.10;;;;;;4978570;28;20045;-75
2023/05/24 06:15:38;;;;;;;10.73;2.08;;;12.00;69.00;;;;;;4978005;28;20043;-76
2023/05/24 06:18:04;;;;;;;8.02;2.38;;;12.10;69.00;;;;;;4994150;28;20702;-76
2023/05/24 06:20:29;;;;;;;7.45;2.47;;;12.20;68.90;;;;;;4977033;28;20034;-76
2023/05/24 06:22:55;;;;;;;9.45;2.50;;;12.20;68.70;;;;;;4994468;28;20076;-76
2023/05/24 06:25:23;;;;;;;7.53;2.00;;;12.30;68.60;;;;;;4993278;28;20528;-74
2023/05/24 06:27:49;;;;;;;12.38;2.97;;;12.40;68.40;;;;;;4994029;28;20040;-76
2023/05/24 06:30:15;;;;;;;6.45;2.40;;;12.50;68.20;;;;;;4994041;28;20037;-76
2023/05/24 06:32:40;;;;;;;9.80;2.25;;;12.50;68.00;;;;;;4992150;28;20588;-75
2023/05/24 06:35:06;;;;;;;13.23;2.75;;;12.60;67.80;;;;;;4988965;28;20046;-75
2023/05/24 06:37:32;;;;;;;7.35;2.17;;;12.70;67.60;;;;;;4993422;28;20113;-75
2023/05/24 06:39:57;;;;;;;5.68;1.70;;;12.80;67.50;;;;;;4993782;28;20390;-75
2023/05/24 06:42:23;;;;;;;8.82;2.00;;;12.90;67.40;;;;;;4995006;28;20026;-76
2023/05/24 06:44:48;;;;;;;7.18;2.15;;;13.00;67.20;;;;;;4966530;28;20648;-76
2023/05/24 06:47:14;;;;;;;7.88;2.60;;;13.10;67.10;;;;;;4992670;28;20060;-75
2023/05/24 06:49:40;;;;;;;7.25;1.92;;;13.20;66.80;;;;;;4992881;28;20052;-76
2023/05/24 06:52:07;;;;;;;6.15;1.83;;;13.30;66.70;;;;;;4990559;28;20029;-75
2023/05/24 06:54:32;;;;;;;6.72;2.35;;;13.40;66.50;;;;;;4981739;28;20692;-76
2023/05/24 06:56:58;;;;;;;10.48;2.30;;;13.50;66.20;;;;;;4985210;28;20535;-75
2023/05/24 06:59:23;;;;;;;7.32;2.13;;;13.60;66.00;;;;;;4995239;28;20061;-76
2023/05/24 07:01:52;;;;;;;6.88;2.00;;;13.60;65.60;;;;;;4997010;28;20109;-74
2023/05/24 07:04:18;;;;;;;5.72;1.90;;;13.70;65.40;;;;;;4995579;28;20044;-75
2023/05/24 07:06:44;;;;;;;11.63;2.13;;;13.70;65.30;;;;;;4996084;28;20030;-76
2023/05/24 07:09:10;;;;;;;7.78;1.75;;;13.80;65.10;;;;;;4998177;28;20046;-76
2023/05/24 07:11:35;;;;;;;9.60;3.10;;;13.80;65.00;;;;;;4980076;28;20081;-76
2023/05/24 07:14:01;;;;;;;7.63;1.90;;;13.80;64.70;;;;;;4987703;28;20129;-76
2023/05/24 07:16:26;;;;;;;4.28;1.55;;;13.90;64.70;;;;;;4966761;28;20037;-76
2023/05/24 07:18:54;;;;;;;8.13;2.20;;;13.90;64.50;;;;;;5000217;28;20054;-77
2023/05/24 07:21:20;;;;;;;9.07;1.90;;;14.00;64.30;;;;;;4972348;28;20092;-76
2023/05/24 07:23:45;;;;;;;7.93;1.92;;;14.10;64.10;;;;;;5006613;28;20041;-76
2023/05/24 07:26:11;;;;;;;9.88;2.42;;;14.10;63.80;;;;;;4990459;28;20046;-75
2023/05/24 07:28:39;;;;;;;5.63;2.40;;;14.10;63.70;;;;;;4996324;28;20060;-75
2023/05/24 07:31:04;;;;;;;7.68;2.28;;;14.20;63.60;;;;;;5013284;28;20103;-75
2023/05/24 07:33:30;;;;;;;5.45;2.05;;;14.20;63.40;;;;;;4981057;28;20042;-75
2023/05/24 07:35:55;;;;;;;10.35;2.20;;;14.30;63.10;;;;;;4985733;28;20496;-75
2023/05/24 07:38:21;;;;;;;6.90;1.80;;;14.40;63.00;;;;;;4984236;28;20120;-74
2023/05/24 07:40:46;;;;;;;6.10;1.85;;;14.40;62.80;;;;;;4991339;28;20046;-75
2023/05/24 07:43:12;;;;;;;7.70;2.13;;;14.60;62.80;;;;;;4968755;28;20048;-75
2023/05/24 07:45:37;;;;;;;9.73;2.05;;;14.70;62.50;;;;;;4951274;28;20042;-75
2023/05/24 07:48:03;;;;;;;5.65;1.88;;;14.80;62.20;;;;;;4985910;28;20067;-75
2023/05/24 07:50:28;;;;;;;7.45;2.03;;;14.80;61.90;;;;;;4980651;28;20064;-74
2023/05/24 07:52:55;;;;;;;3.65;1.58;;;14.90;61.80;;;;;;4956191;28;20194;-75
2023/05/24 07:55:21;;;;;;;7.32;2.17;;;15.00;61.70;;;;;;5008359;28;20064;-75
2023/05/24 07:57:46;;;;;;;7.65;2.30;;;15.10;61.40;;;;;;4979441;28;20033;-76
2023/05/24 08:00:15;;;;;;;9.82;2.70;;;15.20;61.10;;;;;;4966570;28;20038;-76
2023/05/24 08:02:41;;;;;;;8.25;1.88;;;15.30;61.00;;;;;;4996735;28;20048;-75
2023/05/24 08:05:09;;;;;;;8.40;2.13;;;15.40;60.70;;;;;;4997033;28;20042;-75
2023/05/24 08:07:34;;;;;;;5.50;1.92;;;15.50;60.40;;;;;;4974580;28;20101;-76
2023/05/24 08:10:00;;;;;;;4.20;1.73;;;15.60;60.30;;;;;;5011603;28;20034;-75
2023/05/24 08:12:29;;;;;;;3.85;1.77;;;15.70;60.90;;;;;;4953508;28;20046;-76
2023/05/24 08:14:55;;;;;;;14.10;2.28;;;15.80;59.90;;;;;;4977989;28;20113;-75
2023/05/24 08:17:20;;;;;;;9.88;1.92;;;15.90;59.70;;;;;;5004183;28;20453;-75
2023/05/24 08:19:46;;;;;;;5.75;1.77;;;16.00;59.50;;;;;;5008628;28;20088;-75
2023/05/24 08:22:11;;;;;;;7.55;1.70;;;16.10;59.40;;;;;;4993947;28;20033;-75
2023/05/24 08:24:37;;;;;;;10.43;1.98;;;16.20;59.10;;;;;;5000292;28;20064;-76
2023/05/24 08:27:03;;;;;;;4.20;1.42;;;16.30;58.80;;;;;;4999587;28;20458;-76
2023/05/24 08:29:29;;;;;;;6.47;1.60;;;16.30;58.60;;;;;;4974988;28;20874;-76
2023/05/24 08:31:54;;;;;;;7.22;1.80;;;16.40;58.40;;;;;;4997210;28;20045;-76
2023/05/24 08:34:20;;;;;;;8.25;2.05;;;16.50;58.30;;;;;;4982751;28;20029;-76
2023/05/24 08:36:46;;;;;;;5.70;1.90;;;16.60;58.10;;;;;;4990248;28;20718;-76
2023/05/24 08:39:11;;;;;;;8.65;1.90;;;16.70;58.00;;;;;;4986595;28;20045;-77
2023/05/24 08:41:37;;;;;;;8.00;1.75;;;16.80;57.70;;;;;;4999082;28;20041;-76
2023/05/24 08:44:08;;;;;;;10.60;1.98;;;16.90;57.40;;;;;;4988779;28;20703;-75
2023/05/24 08:46:34;;;;;;;6.82;1.60;;;17.00;56.90;;;;;;4999879;28;20053;-77
2023/05/24 08:49:02;;;;;;;9.90;1.95;;;17.10;56.80;;;;;;4980108;28;20030;-77
2023/05/24 08:51:28;;;;;;;4.90;1.63;;;17.20;56.20;;;;;;4959519;28;20036;-76
2023/05/24 08:53:54;;;;;;;6.60;1.73;;;17.30;56.10;;;;;;4989588;28;20042;-76
2023/05/24 08:56:20;;;;;;;7.63;1.77;;;17.40;55.90;;;;;;4982051;28;20042;-77
2023/05/24 08:58:46;;;;;;;7.00;1.92;;;17.50;55.60;;;;;;4992560;28;20107;-76
2023/05/24 09:01:12;;;;;;;6.60;2.35;;;17.60;55.40;;;;;;4969625;28;20041;-76
2023/05/24 09:03:38;;;;;;;6.75;2.03;;;17.70;55.10;;;;;;4960655;28;20033;-77
2023/05/24 09:06:04;;;;;;;5.47;1.77;;;17.70;54.70;;;;;;4960769;28;20050;-77
2023/05/24 09:08:32;;;;;;;8.45;2.38;;;17.80;54.50;;;;;;4973363;28;20049;-76
2023/05/24 09:10:57;;;;;;;4.22;1.50;;;17.90;54.60;;;;;;4994771;28;20041;-77
2023/05/24 09:13:26;;;;;;;6.40;2.53;;;17.90;54.20;;;;;;4993474;28;20034;-77
2023/05/24 09:15:51;;;;;;;5.30;2.20;;;17.90;54.60;;;;;;4972715;28;20046;-77
2023/05/24 09:18:17;;;;;;;10.65;2.17;;;18.00;53.90;;;;;;4989948;28;20046;-77
2023/05/24 09:20:43;;;;;;;8.25;1.77;;;18.00;54.00;;;;;;4989097;28;20125;-76
2023/05/24 09:23:08;;;;;;;6.68;1.70;;;18.00;53.70;;;;;;4986491;28;20046;-77
2023/05/24 09:25:34;;;;;;;7.43;1.48;;;18.10;53.70;;;;;;4996754;28;20069;-76
2023/05/24 09:28:04;;;;;;;7.65;1.80;;;18.10;53.70;;;;;;4977943;28;20032;-77
2023/05/24 09:30:29;;;;;;;7.95;1.63;;;18.20;53.80;;;;;;4977145;28;20045;-77
2023/05/24 09:32:56;;;;;;;5.93;1.75;;;18.10;53.60;;;;;;4995972;28;20100;-77
2023/05/24 09:35:22;;;;;;;10.20;2.47;;;18.20;53.60;;;;;;4993776;28;20706;-76
2023/05/24 09:37:47;;;;;;;12.32;2.63;;;18.20;53.50;;;;;;4983763;28;20546;-77
2023/05/24 09:40:22;;;;;;;11.65;2.65;;;18.30;53.40;;;;;;4972004;28;20888;-76
2023/05/24 09:42:50;;;;;;;10.63;2.22;;;18.20;52.50;;;;;;4964119;28;20030;-77
2023/05/24 09:45:16;;;;;;;6.22;1.80;;;18.20;52.70;;;;;;4995249;28;20049;-77
2023/05/24 09:47:42;;;;;;;6.13;1.73;;;18.10;52.50;;;;;;4968534;28;20042;-76
2023/05/24 09:50:16;;;;;;;9.82;1.90;;;18.10;52.70;;;;;;4978352;28;20036;-77
2023/05/24 09:52:42;;;;;;;6.50;1.50;;;18.10;52.00;;;;;;4970724;28;20164;-76
2023/05/24 09:55:14;;;;;;;10.00;2.17;;;18.20;52.50;;;;;;4991703;28;20121;-76
2023/05/24 09:57:41;;;;;;;7.95;2.03;;;18.30;52.30;;;;;;4979874;28;20038;-76
2023/05/24 10:00:14;;;;;;;11.15;2.40;;;18.30;52.40;;;;;;4992806;28;20694;-77
2023/05/24 10:02:41;;;;;;;10.70;2.72;;;18.40;52.50;;;;;;4965048;28;20068;-76
2023/05/24 10:05:09;;;;;;;7.63;2.30;;;18.50;52.30;;;;;;4977937;28;20033;-77
2023/05/24 10:07:34;;;;;;;9.40;2.85;;;18.70;52.30;;;;;;4973052;28;20060;-76
2023/05/24 10:10:00;;;;;;;8.32;2.05;;;18.80;51.80;;;;;;4995337;28;20113;-77
2023/05/24 10:12:25;;;;;;;8.43;2.30;;;18.90;51.70;;;;;;4978333;28;20411;-77
2023/05/24 10:14:51;;;;;;;9.13;2.30;;;19.00;51.60;;;;;;4985647;28;20401;-77
2023/05/24 10:17:17;;;;;;;7.05;1.85;;;19.10;51.30;;;;;;4991755;28;20034;-77
2023/05/24 10:19:42;;;;;;;9.45;2.25;;;19.30;51.10;;;;;;4997057;28;20073;-77
2023/05/24 10:22:08;;;;;;;9.23;2.35;;;19.50;50.80;;;;;;4995219;28;20468;-76
2023/05/24 10:24:43;;;;;;;9.05;2.17;;;19.50;50.50;;;;;;4978722;28;20096;-77
2023/05/24 10:27:12;;;;;;;7.43;2.10;;;19.50;50.20;;;;;;4994814;28;20046;-76
2023/05/24 10:29:46;;;;;;;7.50;2.05;;;19.70;50.40;;;;;;4978287;28;20041;-77
2023/05/24 10:32:13;;;;;;;7.78;2.38;;;19.80;50.40;;;;;;4973885;28;20046;-77
2023/05/24 10:34:38;;;;;;;9.00;2.42;;;19.90;50.30;;;;;;4978827;28;20034;-77
2023/05/24 10:37:04;;;;;;;9.50;1.70;;;19.90;50.10;;;;;;4990977;28;20042;-77
2023/05/24 10:39:31;;;;;;;13.95;2.10;;;20.00;50.10;;;;;;4984143;28;20037;-77
2023/05/24 10:41:57;;;;;;;6.90;1.90;;;20.10;50.00;;;;;;4993286;28;20037;-77
2023/05/24 10:44:23;;;;;;;12.57;2.50;;;20.20;49.80;;;;;;4954945;28;20049;-78
2023/05/24 10:47:08;;;;;;;12.43;2.50;;;20.20;49.40;;;;;;4954227;28;20039;-77
2023/05/24 10:49:33;;;;;;;6.70;2.13;;;20.20;48.70;;;;;;4976673;28;20060;-76
2023/05/24 10:52:08;;;;;;;11.05;2.47;;;20.20;49.30;;;;;;4992405;28;20030;-75
2023/05/24 10:54:37;;;;;;;8.23;2.13;;;20.20;48.50;;;;;;4949867;28;20467;-75
2023/05/24 10:57:03;;;;;;;7.57;2.30;;;20.30;48.80;;;;;;4977346;28;20127;-76
2023/05/24 10:59:36;;;;;;;8.55;2.58;;;20.50;48.80;;;;;;4992755;28;20077;-76
2023/05/24 11:02:03;;;;;;;10.10;2.20;;;20.70;48.20;;;;;;4956469;28;20129;-76
2023/05/24 11:04:33;;;;;;;9.88;2.30;;;20.90;48.20;;;;;;4989707;28;20100;-76
2023/05/24 11:07:02;;;;;;;8.40;2.05;;;21.10;47.50;;;;;;4977854;28;20092;-76
2023/05/24 11:09:28;;;;;;;9.82;2.45;;;21.20;47.40;;;;;;4993632;28;20034;-76
2023/05/24 11:11:55;;;;;;;6.68;1.92;;;21.40;47.40;;;;;;4992089;28;20048;-76
2023/05/24 11:14:28;;;;;;;6.63;1.88;;;21.60;47.20;;;;;;4993987;28;20041;-76
2023/05/24 11:16:54;;;;;;;9.48;2.50;;;21.80;46.70;;;;;;4981940;28;20072;-77
2023/05/24 11:19:27;;;;;;;10.27;2.55;;;21.90;46.90;;;;;;5000765;28;20145;-75
2023/05/24 11:21:57;;;;;;;10.15;2.60;;;22.10;46.30;;;;;;4994924;28;20034;-76
2023/05/24 11:24:22;;;;;;;14.60;2.70;;;22.30;46.10;;;;;;4980695;28;20065;-76
2023/05/24 11:26:48;;;;;;;10.68;2.92;;;22.50;46.00;;;;;;4993360;28;20420;-76
2023/05/24 11:29:20;;;;;;;7.22;2.50;;;22.70;45.60;;;;;;4993280;28;20033;-76
2023/05/24 11:31:51;;;;;;;7.15;2.13;;;22.90;45.30;;;;;;4971190;28;20033;-76
2023/05/24 11:34:17;;;;;;;10.30;2.40;;;23.10;44.80;;;;;;4951012;28;20034;-75
2023/05/24 11:36:43;;;;;;;10.05;2.55;;;23.20;44.90;;;;;;4989341;28;20038;-76
2023/05/24 11:39:08;;;;;;;7.65;2.42;;;23.30;44.70;;;;;;4979281;28;20142;-76
2023/05/24 11:41:37;;;;;;;10.50;2.80;;;23.40;44.50;;;;;;4969229;28;20133;-76
2023/05/24 11:44:03;;;;;;;8.20;2.70;;;23.50;43.80;;;;;;4979365;28;20092;-75
2023/05/24 11:46:29;;;;;;;8.48;2.20;;;23.50;43.90;;;;;;4986193;28;20038;-76
2023/05/24 11:48:56;;;;;;;5.60;2.50;;;23.60;43.80;;;;;;4991906;28;20049;-77
2023/05/24 11:51:26;;;;;;;11.32;2.35;;;23.70;43.40;;;;;;4993154;28;20137;-75
2023/05/24 11:53:51;;;;;;;9.25;2.53;;;23.90;43.30;;;;;;4977437;28;20041;-76
2023/05/24 11:56:17;;;;;;;10.25;2.15;;;24.00;43.20;;;;;;4976978;28;20405;-76
2023/05/24 11:58:49;;;;;;;6.10;2.10;;;24.20;42.80;;;;;;4980699;28;20065;-76
2023/05/24 12:01:24;;;;;;;10.43;2.42;;;24.30;42.30;;;;;;4990848;28;20053;-76
2023/05/24 12:03:51;;;;;;;6.25;2.08;;;24.40;41.90;;;;;;4995122;28;20044;-75
2023/05/24 12:06:17;;;;;;;6.15;2.38;;;24.50;42.30;;;;;;5002336;28;20524;-77
2023/05/24 12:08:43;;;;;;;7.05;2.10;;;24.60;42.30;;;;;;4973865;28;20037;-77
2023/05/24 12:11:08;;;;;;;9.35;2.40;;;24.80;42.10;;;;;;5001055;28;20566;-77
2023/05/24 12:13:35;;;;;;;6.72;1.73;;;25.00;41.90;;;;;;4981740;28;20728;-77
2023/05/24 12:16:01;;;;;;;10.52;2.25;;;25.20;41.60;;;;;;5001501;28;20042;-77
2023/05/24 12:18:27;;;;;;;7.32;2.35;;;25.40;41.20;;;;;;4988135;28;20118;-77
2023/05/24 12:20:53;;;;;;;5.35;2.08;;;25.60;40.60;;;;;;5000705;28;20045;-77
2023/05/24 12:23:20;;;;;;;6.97;2.53;;;25.70;40.30;;;;;;4999568;28;20037;-77
2023/05/24 12:25:46;;;;;;;6.25;2.50;;;25.80;40.00;;;;;;4976266;28;20076;-77
2023/05/24 12:28:11;;;;;;;8.23;2.03;;;26.00;40.00;;;;;;4998996;28;20659;-77
2023/05/24 12:30:43;;;;;;;3.17;1.83;;;26.20;39.60;;;;;;5016455;28;20591;-76
2023/05/24 12:33:11;;;;;;;5.72;2.22;;;26.50;39.50;;;;;;5001406;28;20029;-77
2023/05/24 12:35:40;;;;;;;7.38;1.92;;;26.50;38.70;;;;;;4999513;28;20022;-77
2023/05/24 12:38:07;;;;;;;5.72;1.73;;;26.60;38.90;;;;;;5000866;28;20040;-76
2023/05/24 12:40:33;;;;;;;7.05;2.70;;;26.70;38.70;;;;;;4967831;28;20061;-77
2023/05/24 12:42:59;;;;;;;7.80;2.33;;;26.90;38.50;;;;;;4982577;28;20149;-78